Time;durP1;ratioP1;P1;durP2;ratioP2;P2;SDS_P1;SDS_P2;PMS_P1;PMS_P2;Temp;Humidity;BMP_temperature;BMP_pressure;BME280_temperature;BME280_humidity;BME280_pressure;Samples;Min_cycle;Max_cycle;Signal;HPM_P1;HPM_P2
2022/05/09 00:00:24;;;;;;;13.95;2.63;;;;;;;;;;4955073;29;20030;-76
2022/05/09 00:02:50;;;;;;;8.13;2.10;;;;;;;;;;4955050;29;20478;-75
2022/05/09 00:05:18;;;;;;;10.45;2.50;;;;;;;;;;4955143;29;20095;-75
2022/05/09 00:07:44;;;;;;;13.73;2.08;;;;;;;;;;4955289;28;20023;-75
2022/05/09 00:10:11;;;;;;;9.23;2.50;;;;;;;;;;4955016;29;20031;-76
2022/05/09 00:12:38;;;;;;;14.75;2.20;;;;;;;;;;4954895;29;20035;-76
2022/05/09 00:15:04;;;;;;;10.23;2.28;;;;;;;;;;4954858;29;20131;-76
2022/05/09 00:17:30;;;;;;;12.38;2.17;;;;;;;;;;4966341;28;20027;-76
2022/05/09 00:19:57;;;;;;;13.25;2.42;;;;;;;;;;4974108;28;20070;-76
2022/05/09 00:22:23;;;;;;;14.50;2.53;;;;;;;;;;4974127;28;20033;-76
2022/05/09 00:24:49;;;;;;;11.05;2.58;;;;;;;;;;4974000;28;20355;-76
2022/05/09 00:27:15;;;;;;;14.18;2.10;;;;;;;;;;4974123;28;20031;-75
2022/05/09 00:29:41;;;;;;;7.78;2.70;;;;;;;;;;4972775;28;20385;-75
2022/05/09 00:32:07;;;;;;;9.50;3.50;;;;;;;;;;4974031;28;20027;-75
2022/05/09 00:34:37;;;;;;;11.95;2.47;;;;;;;;;;4974079;28;20058;-75
2022/05/09 00:37:03;;;;;;;13.65;2.20;;;;;;;;;;4972660;28;20454;-75
2022/05/09 00:39:29;;;;;;;15.23;2.95;;;;;;;;;;4974007;28;20033;-76
2022/05/09 00:41:55;;;;;;;18.23;2.63;;;;;;;;;;4973866;28;20421;-76
2022/05/09 00:44:22;;;;;;;17.35;2.53;;;;;;;;;;4973593;28;20055;-76
2022/05/09 00:46:50;;;;;;;18.33;2.40;;;;;;;;;;4973681;28;20434;-76
2022/05/09 00:49:20;;;;;;;9.50;3.17;;;;;;;;;;4973766;28;20477;-76
2022/05/09 00:51:49;;;;;;;10.68;2.42;;;;;;;;;;4973476;28;20038;-76
2022/05/09 00:54:15;;;;;;;14.48;3.20;;;;;;;;;;4972209;28;20033;-75
2022/05/09 00:56:44;;;;;;;10.98;2.70;;;;;;;;;;4973626;28;20106;-75
2022/05/09 00:59:12;;;;;;;7.25;2.03;;;;;;;;;;4973636;28;20023;-75
2022/05/09 01:01:39;;;;;;;17.42;2.67;;;;;;;;;;4973416;28;20117;-75
2022/05/09 01:04:08;;;;;;;10.90;2.40;;;;;;;;;;4973701;28;20373;-75
2022/05/09 01:06:34;;;;;;;7.95;2.72;;;;;;;;;;4968733;28;20023;-75
2022/05/09 01:09:01;;;;;;;12.63;3.00;;;;;;;;;;4952683;29;20410;-75
2022/05/09 01:11:28;;;;;;;14.13;3.53;;;;;;;;;;4954082;28;20030;-75
2022/05/09 01:13:57;;;;;;;10.48;2.80;;;;;;;;;;4954193;28;20038;-75
2022/05/09 01:16:25;;;;;;;15.30;3.28;;;;;;;;;;4956741;28;20022;-75
2022/05/09 01:18:52;;;;;;;12.85;2.78;;;;;;;;;;4973202;28;20114;-75
2022/05/09 01:21:32;;;;;;;14.95;2.58;;;;;;;;;;4972668;28;20026;-75
2022/05/09 01:23:59;;;;;;;15.73;2.30;;;;;;;;;;4971857;28;20042;-75
2022/05/09 01:26:25;;;;;;;10.88;2.38;;;;;;;;;;4973255;28;20042;-75
2022/05/09 01:28:51;;;;;;;13.50;2.53;;;;;;;;;;4973306;28;20122;-75
2022/05/09 01:31:18;;;;;;;16.23;2.92;;;;;;;;;;4973049;28;20381;-75
2022/05/09 01:33:46;;;;;;;22.05;3.65;;;;;;;;;;4973027;28;20034;-75
2022/05/09 01:36:16;;;;;;;14.65;3.28;;;;;;;;;;4972896;28;20109;-75
2022/05/09 01:38:56;;;;;;;13.02;2.78;;;;;;;;;;4961285;28;20027;-75
2022/05/09 01:41:22;;;;;;;11.30;2.88;;;;;;;;;;4953490;28;20471;-75
2022/05/09 01:43:50;;;;;;;14.10;3.03;;;;;;;;;;4953534;29;20038;-75
2022/05/09 01:46:19;;;;;;;13.05;2.60;;;;;;;;;;4953806;28;20035;-75
2022/05/09 01:51:29;;;;;;;14.63;2.50;;;;;;;;;;4953937;29;20390;-75
2022/05/09 01:53:55;;;;;;;11.20;2.45;;;;;;;;;;4953721;29;20035;-75
2022/05/09 01:56:23;;;;;;;15.45;2.90;;;;;;;;;;4953508;29;20031;-75
2022/05/09 01:58:49;;;;;;;13.90;3.33;;;;;;;;;;4953628;29;20027;-75
2022/05/09 02:01:19;;;;;;;13.00;3.20;;;;;;;;;;4953643;29;20055;-75
2022/05/09 02:03:46;;;;;;;11.75;2.70;;;;;;;;;;4953699;28;20117;-75
2022/05/09 02:06:12;;;;;;;9.73;2.80;;;;;;;;;;4953648;29;20031;-75
2022/05/09 02:08:39;;;;;;;13.02;3.78;;;;;;;;;;4953512;29;20037;-75
2022/05/09 02:11:05;;;;;;;12.48;2.92;;;;;;;;;;4952099;29;20048;-75
2022/05/09 02:13:31;;;;;;;13.90;2.70;;;;;;;;;;4953568;29;20023;-75
2022/05/09 02:15:57;;;;;;;13.95;3.03;;;;;;;;;;4953532;29;20027;-75
2022/05/09 02:18:23;;;;;;;10.77;2.90;;;;;;;;;;4953307;28;20031;-75
2022/05/09 02:20:49;;;;;;;16.80;2.92;;;;;;;;;;4952036;29;20023;-75
2022/05/09 02:23:17;;;;;;;8.07;2.63;;;;;;;;;;4952023;28;20027;-75
2022/05/09 02:25:44;;;;;;;17.33;2.80;;;;;;;;;;4952005;28;20031;-75
2022/05/09 02:28:11;;;;;;;12.63;3.13;;;;;;;;;;4953583;28;20024;-75
2022/05/09 02:30:38;;;;;;;16.65;3.15;;;;;;;;;;4953444;28;20459;-75
2022/05/09 02:33:04;;;;;;;17.58;3.15;;;;;;;;;;4955721;28;20174;-75
2022/05/09 02:35:30;;;;;;;11.27;3.20;;;;;;;;;;4956647;28;20034;-75
2022/05/09 02:37:56;;;;;;;13.77;3.25;;;;;;;;;;4960815;28;20047;-75
2022/05/09 02:40:24;;;;;;;16.40;3.40;;;;;;;;;;4975967;28;20441;-75
2022/05/09 02:42:50;;;;;;;13.75;2.95;;;;;;;;;;4976209;28;20445;-75
2022/05/09 02:45:17;;;;;;;17.48;3.83;;;;;;;;;;4975722;28;20073;-75
2022/05/09 02:47:43;;;;;;;14.73;3.28;;;;;;;;;;4976058;28;20461;-75
2022/05/09 02:50:10;;;;;;;15.13;3.75;;;;;;;;;;4975972;28;20041;-75
2022/05/09 02:52:37;;;;;;;9.70;3.38;;;;;;;;;;4974235;28;20027;-75
2022/05/09 02:55:05;;;;;;;20.55;3.30;;;;;;;;;;4975897;28;20425;-75
2022/05/09 02:57:31;;;;;;;12.98;3.03;;;;;;;;;;4975659;28;20041;-75
2022/05/09 02:59:57;;;;;;;20.73;3.40;;;;;;;;;;4974275;28;20027;-75
2022/05/09 03:02:23;;;;;;;18.38;4.03;;;;;;;;;;4975717;28;20381;-75
2022/05/09 03:04:49;;;;;;;16.30;3.92;;;;;;;;;;4975547;28;20034;-75
2022/05/09 03:07:17;;;;;;;16.73;3.22;;;;;;;;;;4975265;28;20031;-75
2022/05/09 03:09:44;;;;;;;15.35;3.95;;;;;;;;;;4975390;28;20042;-75
2022/05/09 03:12:11;;;;;;;13.18;3.90;;;;;;;;;;4975508;28;20058;-75
2022/05/09 03:14:37;;;;;;;11.82;3.30;;;;;;;;;;4975646;28;20385;-75
2022/05/09 03:17:04;;;;;;;17.70;3.92;;;;;;;;;;4975231;28;20458;-75
2022/05/09 03:19:30;;;;;;;13.43;3.72;;;;;;;;;;4975265;28;20026;-75
2022/05/09 03:21:56;;;;;;;18.95;3.75;;;;;;;;;;4975216;28;20070;-75
2022/05/09 03:24:22;;;;;;;15.55;3.92;;;;;;;;;;4973956;28;20058;-75
2022/05/09 03:26:49;;;;;;;17.98;4.82;;;;;;;;;;4973917;28;20037;-75
2022/05/09 03:29:15;;;;;;;13.07;3.65;;;;;;;;;;4975050;28;20033;-75
2022/05/09 03:31:42;;;;;;;19.95;4.30;;;;;;;;;;4973808;28;20078;-75
2022/05/09 03:34:08;;;;;;;12.55;4.35;;;;;;;;;;4974841;28;20037;-75
2022/05/09 03:36:34;;;;;;;23.08;4.13;;;;;;;;;;4974726;28;20090;-75
2022/05/09 03:39:01;;;;;;;12.95;3.35;;;;;;;;;;4974801;28;20083;-75
2022/05/09 03:41:27;;;;;;;19.10;3.60;;;;;;;;;;4973548;28;20389;-75
2022/05/09 03:43:53;;;;;;;20.92;4.40;;;;;;;;;;4974314;28;20105;-75
2022/05/09 03:46:19;;;;;;;18.45;4.18;;;;;;;;;;4974967;28;20377;-75
2022/05/09 03:48:45;;;;;;;17.27;3.47;;;;;;;;;;4974694;28;20042;-75
2022/05/09 03:51:11;;;;;;;12.75;3.38;;;;;;;;;;4974769;28;20791;-75
2022/05/09 03:53:37;;;;;;;13.98;3.63;;;;;;;;;;4974795;28;20023;-75
2022/05/09 03:56:05;;;;;;;15.30;3.22;;;;;;;;;;4974684;28;20414;-75
2022/05/09 03:58:31;;;;;;;11.75;2.85;;;;;;;;;;4974851;28;20019;-75
2022/05/09 04:00:57;;;;;;;13.70;4.20;;;;;;;;;;4973041;28;20023;-75
2022/05/09 04:03:23;;;;;;;19.35;4.57;;;;;;;;;;4974497;28;20077;-75
2022/05/09 04:05:49;;;;;;;13.57;3.92;;;;;;;;;;4974668;28;20030;-75
2022/05/09 04:08:16;;;;;;;21.25;4.38;;;;;;;;;;4974529;28;20115;-75
2022/05/09 04:10:43;;;;;;;22.52;3.80;;;;;;;;;;4974427;28;20533;-75
2022/05/09 04:13:09;;;;;;;20.60;4.82;;;;;;;;;;4972978;28;20030;-75
2022/05/09 04:18:21;;;;;;;16.50;3.97;;;;;;;;;;4955831;28;20054;-75
2022/05/09 04:20:49;;;;;;;18.85;3.90;;;;;;;;;;4954910;28;20094;-75
2022/05/09 04:23:15;;;;;;;32.83;4.72;;;;;;;;;;4953486;29;20054;-75
2022/05/09 04:25:42;;;;;;;18.38;4.15;;;;;;;;;;4954668;29;20035;-75
2022/05/09 04:28:08;;;;;;;30.35;4.93;;;;;;;;;;4954876;29;20372;-75
2022/05/09 04:30:35;;;;;;;21.10;4.13;;;;;;;;;;4954690;29;20439;-75
2022/05/09 04:33:01;;;;;;;18.27;4.55;;;;;;;;;;4954687;29;20065;-75
2022/05/09 04:35:28;;;;;;;20.50;4.00;;;;;;;;;;4954479;29;20027;-75
2022/05/09 04:37:54;;;;;;;17.38;4.05;;;;;;;;;;4957219;28;20019;-75
2022/05/09 04:40:25;;;;;;;22.75;4.45;;;;;;;;;;4973837;28;20470;-75
2022/05/09 04:42:51;;;;;;;16.58;4.07;;;;;;;;;;4973796;28;20062;-75
2022/05/09 04:45:18;;;;;;;15.18;3.97;;;;;;;;;;4973448;28;20054;-75
2022/05/09 04:47:45;;;;;;;15.52;4.78;;;;;;;;;;4973786;28;20019;-75
2022/05/09 04:50:12;;;;;;;17.90;4.28;;;;;;;;;;4972488;28;20027;-75
2022/05/09 04:52:39;;;;;;;20.98;4.47;;;;;;;;;;4973580;28;20027;-75
2022/05/09 04:55:05;;;;;;;25.83;4.97;;;;;;;;;;4972992;28;20023;-75
2022/05/09 04:57:31;;;;;;;26.38;4.95;;;;;;;;;;4973620;28;20062;-75
2022/05/09 04:59:58;;;;;;;17.45;4.00;;;;;;;;;;4972246;28;20046;-75
2022/05/09 05:02:24;;;;;;;24.60;4.47;;;;;;;;;;4973555;28;20034;-75
2022/05/09 05:04:50;;;;;;;24.27;4.38;;;;;;;;;;4973342;28;20524;-75
2022/05/09 05:07:16;;;;;;;13.55;4.30;;;;;;;;;;4973430;28;20342;-75
2022/05/09 05:09:42;;;;;;;14.77;3.72;;;;;;;;;;4973445;28;20070;-75
2022/05/09 05:12:08;;;;;;;18.17;5.03;;;;;;;;;;4972046;28;20031;-76
2022/05/09 05:14:34;;;;;;;17.08;4.50;;;;;;;;;;4973586;28;20034;-76
2022/05/09 05:17:00;;;;;;;23.45;4.25;;;;;;;;;;4973352;28;20034;-76
2022/05/09 05:19:31;;;;;;;17.20;4.25;;;;;;;;;;4973349;28;20027;-76
2022/05/09 05:21:59;;;;;;;19.13;4.68;;;;;;;;;;4973400;28;20015;-76
2022/05/09 05:24:25;;;;;;;16.38;3.92;;;;;;;;;;4972012;28;20477;-76
2022/05/09 05:26:52;;;;;;;27.80;5.57;;;;;;;;;;4973142;28;20039;-76
2022/05/09 05:29:18;;;;;;;16.13;3.60;;;;;;;;;;4973351;28;20081;-76
2022/05/09 05:31:45;;;;;;;21.73;4.47;;;;;;;;;;4973006;28;20035;-76
2022/05/09 05:34:11;;;;;;;11.75;3.95;;;;;;;;;;4973287;28;20031;-76
2022/05/09 05:36:37;;;;;;;14.73;3.60;;;;;;;;;;4973039;28;20382;-77
2022/05/09 05:39:04;;;;;;;15.63;3.72;;;;;;;;;;4960188;28;20051;-76
2022/05/09 05:41:31;;;;;;;15.88;3.72;;;;;;;;;;4968533;28;20034;-77
2022/05/09 05:43:57;;;;;;;27.65;4.30;;;;;;;;;;4954069;29;20028;-77
2022/05/09 05:46:24;;;;;;;13.82;3.65;;;;;;;;;;4953841;29;20032;-76
2022/05/09 05:48:50;;;;;;;10.68;3.50;;;;;;;;;;4954203;29;20031;-79
2022/05/09 05:51:18;;;;;;;15.40;3.65;;;;;;;;;;4953968;29;20038;-74
2022/05/09 05:53:45;;;;;;;13.73;3.70;;;;;;;;;;4953904;29;20474;-75
2022/05/09 05:56:11;;;;;;;12.55;3.75;;;;;;;;;;4953959;29;20042;-74
2022/05/09 05:58:37;;;;;;;15.02;3.90;;;;;;;;;;4954176;29;20027;-75
2022/05/09 06:01:03;;;;;;;11.75;3.28;;;;;;;;;;4954079;29;20023;-75
2022/05/09 06:03:29;;;;;;;13.85;3.35;;;;;;;;;;4953609;29;20019;-76
2022/05/09 06:05:55;;;;;;;12.30;3.33;;;;;;;;;;4968965;28;20077;-76
2022/05/09 06:08:21;;;;;;;13.10;2.90;;;;;;;;;;4957441;29;20042;-77
2022/05/09 06:10:47;;;;;;;16.58;3.80;;;;;;;;;;4956898;29;20039;-76
2022/05/09 06:13:13;;;;;;;17.00;3.85;;;;;;;;;;4971281;28;20031;-77
2022/05/09 06:15:41;;;;;;;13.55;3.67;;;;;;;;;;4957047;29;20467;-77
2022/05/09 06:18:08;;;;;;;10.45;2.75;;;;;;;;;;4957249;28;20051;-77
2022/05/09 06:20:36;;;;;;;14.50;3.30;;;;;;;;;;4957111;29;20038;-77
2022/05/09 06:23:03;;;;;;;20.65;3.25;;;;;;;;;;4957107;29;20517;-77
2022/05/09 06:25:30;;;;;;;12.23;3.25;;;;;;;;;;4957038;28;20513;-78
2022/05/09 06:27:58;;;;;;;16.95;3.67;;;;;;;;;;4956849;28;20045;-78
2022/05/09 06:30:24;;;;;;;10.20;3.00;;;;;;;;;;4955512;29;20023;-77
2022/05/09 06:32:50;;;;;;;12.68;3.25;;;;;;;;;;4956931;29;20031;-77
2022/05/09 06:35:23;;;;;;;10.82;2.78;;;;;;;;;;4956823;29;20443;-77
2022/05/09 06:37:49;;;;;;;16.75;3.00;;;;;;;;;;4960033;28;20034;-78
2022/05/09 06:40:15;;;;;;;11.27;2.80;;;;;;;;;;4974795;28;20027;-77
2022/05/09 06:42:41;;;;;;;12.95;2.78;;;;;;;;;;4976302;28;20026;-77
2022/05/09 06:45:08;;;;;;;13.25;3.33;;;;;;;;;;4975938;28;20497;-78
2022/05/09 06:47:35;;;;;;;14.10;3.33;;;;;;;;;;4975992;28;20026;-78
2022/05/09 06:50:02;;;;;;;10.38;3.00;;;;;;;;;;4975857;28;20053;-77
2022/05/09 06:52:28;;;;;;;13.95;2.88;;;;;;;;;;4974471;28;20086;-77
2022/05/09 06:54:54;;;;;;;17.83;3.08;;;;;;;;;;4974788;28;20469;-78
2022/05/09 06:57:21;;;;;;;22.45;2.97;;;;;;;;;;4975670;28;20417;-78
2022/05/09 06:59:47;;;;;;;10.50;2.42;;;;;;;;;;4975752;28;20051;-78
2022/05/09 07:02:14;;;;;;;19.20;3.53;;;;;;;;;;4975771;28;20034;-78
2022/05/09 07:04:40;;;;;;;10.25;2.60;;;;;;;;;;4975533;28;20034;-76
2022/05/09 07:07:06;;;;;;;13.23;2.90;;;;;;;;;;4959564;28;20023;-77
2022/05/09 07:09:33;;;;;;;11.45;2.30;;;;;;;;;;4956352;29;20102;-77
2022/05/09 07:11:59;;;;;;;12.60;2.70;;;;;;;;;;4956194;29;20031;-77
2022/05/09 07:14:25;;;;;;;15.00;2.90;;;;;;;;;;4955838;29;20028;-77
2022/05/09 07:16:51;;;;;;;18.67;3.63;;;;;;;;;;4962336;28;20110;-79
2022/05/09 07:19:17;;;;;;;13.38;2.60;;;;;;;;;;4974752;28;20103;-78
2022/05/09 07:21:44;;;;;;;13.45;2.67;;;;;;;;;;4975112;28;20484;-77
2022/05/09 07:24:10;;;;;;;13.70;2.90;;;;;;;;;;4975292;28;20031;-77
2022/05/09 07:26:36;;;;;;;8.48;2.38;;;;;;;;;;4975255;28;20113;-77
2022/05/09 07:29:04;;;;;;;11.32;2.60;;;;;;;;;;4975413;28;20051;-79
2022/05/09 07:31:30;;;;;;;14.90;3.15;;;;;;;;;;4973890;28;20414;-75
2022/05/09 07:33:56;;;;;;;14.02;2.40;;;;;;;;;;4974560;28;20066;-75
2022/05/09 07:36:22;;;;;;;12.00;2.78;;;;;;;;;;4974765;28;20051;-75
2022/05/09 07:38:48;;;;;;;13.10;2.33;;;;;;;;;;4974881;28;20070;-74
2022/05/09 07:41:14;;;;;;;8.32;2.17;;;;;;;;;;4974760;28;20046;-74
2022/05/09 07:43:40;;;;;;;14.82;2.80;;;;;;;;;;4975314;28;20062;-74
2022/05/09 07:46:06;;;;;;;16.33;2.60;;;;;;;;;;4973234;28;20063;-74
2022/05/09 07:48:32;;;;;;;9.55;2.10;;;;;;;;;;4974654;28;20038;-74
2022/05/09 07:50:59;;;;;;;12.50;2.42;;;;;;;;;;4974270;28;20352;-74
2022/05/09 07:53:27;;;;;;;12.63;2.13;;;;;;;;;;4974378;28;20036;-74
2022/05/09 07:55:53;;;;;;;10.10;2.25;;;;;;;;;;4973132;28;20027;-74
2022/05/09 07:58:19;;;;;;;11.73;2.38;;;;;;;;;;4974555;28;20465;-74
2022/05/09 08:00:46;;;;;;;9.73;2.13;;;;;;;;;;4974355;28;20103;-74
2022/05/09 08:03:14;;;;;;;10.40;1.85;;;;;;;;;;4974370;28;20026;-74
2022/05/09 08:05:40;;;;;;;9.57;2.22;;;;;;;;;;4974181;28;20034;-74
2022/05/09 08:08:06;;;;;;;7.93;2.28;;;;;;;;;;4974340;28;20026;-74
2022/05/09 08:10:33;;;;;;;16.33;2.10;;;;;;;;;;4974245;28;20027;-74
2022/05/09 08:12:59;;;;;;;11.32;2.28;;;;;;;;;;4974046;28;20039;-77
2022/05/09 08:15:26;;;;;;;17.15;3.28;;;;;;;;;;4974173;28;20050;-77
2022/05/09 08:17:52;;;;;;;9.25;2.25;;;;;;;;;;4974237;28;20026;-75
2022/05/09 08:20:20;;;;;;;12.45;2.03;;;;;;;;;;4974305;28;20019;-75
2022/05/09 08:22:46;;;;;;;11.98;1.90;;;;;;;;;;4974465;28;20081;-77
2022/05/09 08:25:14;;;;;;;9.30;2.22;;;;;;;;;;4974507;28;20023;-74
2022/05/09 08:27:40;;;;;;;10.98;1.60;;;;;;;;;;4974498;28;20031;-76
2022/05/09 08:30:07;;;;;;;8.63;1.63;;;;;;;;;;4973226;28;20023;-76
2022/05/09 08:32:36;;;;;;;7.97;1.70;;;;;;;;;;4974382;28;20146;-76
2022/05/09 08:35:03;;;;;;;11.77;2.05;;;;;;;;;;4974594;28;20019;-76
2022/05/09 08:37:29;;;;;;;12.02;1.92;;;;;;;;;;4974073;28;20054;-76
2022/05/09 08:39:55;;;;;;;11.98;2.13;;;;;;;;;;4974102;28;20430;-76
2022/05/09 08:42:41;;;;;;;7.90;1.85;;;;;;;;;;4974589;28;20053;-76
2022/05/09 08:45:17;;;;;;;7.70;1.70;;;;;;;;;;4973977;28;20513;-75
2022/05/09 08:47:49;;;;;;;12.30;1.80;;;;;;;;;;4974163;28;20034;-77
2022/05/09 08:50:18;;;;;;;11.67;2.07;;;;;;;;;;4971707;28;20034;-76
2022/05/09 08:52:59;;;;;;;8.50;1.80;;;;;;;;;;4973951;28;20419;-76
2022/05/09 08:55:27;;;;;;;8.02;2.00;;;;;;;;;;4972891;28;20046;-75
2022/05/09 08:58:00;;;;;;;11.27;1.98;;;;;;;;;;4973659;28;20477;-74
2022/05/09 09:00:29;;;;;;;10.15;2.08;;;;;;;;;;4973484;28;20027;-74
2022/05/09 09:03:02;;;;;;;13.27;2.35;;;;;;;;;;4971967;28;20031;-74
2022/05/09 09:05:32;;;;;;;10.52;2.35;;;;;;;;;;4973118;28;20097;-74
2022/05/09 09:08:10;;;;;;;8.65;2.38;;;;;;;;;;4973273;28;20049;-74
2022/05/09 09:10:55;;;;;;;13.77;2.05;;;;;;;;;;4971890;28;20409;-74
2022/05/09 09:13:39;;;;;;;7.65;1.90;;;;;;;;;;4973102;28;20023;-74
2022/05/09 09:16:16;;;;;;;9.07;1.85;;;;;;;;;;4970377;28;20383;-74
2022/05/09 09:19:04;;;;;;;9.48;2.63;;;;;;;;;;4972751;28;20082;-74
2022/05/09 09:21:36;;;;;;;7.28;1.77;;;;;;;;;;4973042;28;20019;-74
2022/05/09 09:24:10;;;;;;;9.30;2.03;;;;;;;;;;4973053;28;20034;-74
2022/05/09 09:26:46;;;;;;;10.20;2.05;;;;;;;;;;4971741;28;20038;-74
2022/05/09 09:29:20;;;;;;;11.73;2.00;;;;;;;;;;4973094;28;20031;-74
2022/05/09 09:31:55;;;;;;;11.45;2.15;;;;;;;;;;4973009;28;20031;-74
2022/05/09 09:34:31;;;;;;;9.40;2.00;;;;;;;;;;4971623;28;20118;-74
2022/05/09 09:37:20;;;;;;;16.75;2.40;;;;;;;;;;4973019;28;20029;-74
2022/05/09 09:39:46;;;;;;;10.00;2.28;;;;;;;;;;4951150;29;20039;-74
2022/05/09 09:42:12;;;;;;;8.40;1.98;;;;;;;;;;4954278;28;20403;-74
2022/05/09 09:44:41;;;;;;;7.32;1.92;;;;;;;;;;4955226;29;20083;-73
2022/05/09 09:47:07;;;;;;;8.93;2.05;;;;;;;;;;4955817;29;20043;-79
2022/05/09 09:49:35;;;;;;;9.18;2.20;;;;;;;;;;4955979;29;20031;-75
2022/05/09 09:52:02;;;;;;;11.55;1.90;;;;;;;;;;4955441;29;20050;-76
2022/05/09 09:54:30;;;;;;;7.75;2.15;;;;;;;;;;4955743;29;20050;-75
2022/05/09 09:56:56;;;;;;;7.78;1.98;;;;;;;;;;4955539;29;20097;-76
2022/05/09 09:59:24;;;;;;;7.65;2.08;;;;;;;;;;4955687;29;20042;-75
2022/05/09 10:02:04;;;;;;;9.70;2.38;;;;;;;;;;4955556;29;20023;-75
2022/05/09 10:04:31;;;;;;;10.95;2.67;;;;;;;;;;4955657;29;20347;-76
2022/05/09 10:06:58;;;;;;;9.02;2.40;;;;;;;;;;4955802;29;20117;-77
2022/05/09 10:09:25;;;;;;;16.73;2.20;;;;;;;;;;4955687;29;20028;-77
2022/05/09 10:11:51;;;;;;;13.75;3.35;;;;;;;;;;4955832;29;20028;-77
2022/05/09 10:14:33;;;;;;;8.85;2.50;;;;;;;;;;4955613;29;20067;-76
2022/05/09 10:17:19;;;;;;;12.48;2.58;;;;;;;;;;4959794;28;20032;-76
2022/05/09 10:19:46;;;;;;;10.00;2.72;;;;;;;;;;4957324;29;20158;-77
2022/05/09 10:25:06;;;;;;;8.50;2.22;;;;;;;;;;4976270;28;20049;-76
2022/05/09 10:27:33;;;;;;;10.38;2.83;;;;;;;;;;4976144;28;20019;-76
2022/05/09 10:30:05;;;;;;;16.38;3.85;;;;;;;;;;4976135;28;20042;-78
2022/05/09 10:32:31;;;;;;;;;;;;;;;;;;4976461;28;20019;-78
2022/05/09 10:35:06;;;;;;;9.98;3.05;;;;;;;;;;4976097;28;19928;-78
2022/05/09 10:37:49;;;;;;;10.60;2.85;;;;;;;;;;4974475;28;20366;-78
2022/05/09 10:40:28;;;;;;;12.50;2.92;;;;;;;;;;4975889;28;20118;-78
2022/05/09 10:43:01;;;;;;;10.15;3.13;;;;;;;;;;4974730;28;20052;-77
2022/05/09 10:45:29;;;;;;;13.15;3.38;;;;;;;;;;4975702;28;20047;-77
2022/05/09 10:48:14;;;;;;;12.63;3.00;;;;;;;;;;4975830;28;20034;-78
2022/05/09 10:50:43;;;;;;;8.57;3.08;;;;;;;;;;4975685;28;20044;-78
2022/05/09 10:53:13;;;;;;;10.02;3.10;;;;;;;;;;4974717;28;20389;-78
2022/05/09 10:55:59;;;;;;;10.55;2.80;;;;;;;;;;4975667;28;20041;-77
2022/05/09 10:58:38;;;;;;;12.75;3.70;;;;;;;;;;4915860;29;20128;-78
2022/05/09 11:01:12;;;;;;;10.45;2.60;;;;;;;;;;4916035;29;20044;-78
2022/05/09 11:03:39;;;;;;;9.70;2.88;;;;;;;;;;4915908;29;20051;-78
2022/05/09 11:06:21;;;;;;;12.93;3.33;;;;;;;;;;4908453;29;20032;-78
2022/05/09 11:08:50;;;;;;;14.88;2.85;;;;;;;;;;4897225;29;20032;-78
2022/05/09 11:11:36;;;;;;;7.93;2.33;;;;;;;;;;4897296;29;20033;-77
2022/05/09 11:14:02;;;;;;;9.35;2.20;;;;;;;;;;4841233;29;20046;-78
2022/05/09 11:16:37;;;;;;;9.77;2.67;;;;;;;;;;4841386;29;20064;-77
2022/05/09 11:19:14;;;;;;;11.00;2.35;;;;;;;;;;4826199;29;20038;-78
2022/05/09 11:21:40;;;;;;;8.70;2.88;;;;;;;;;;4841093;29;20037;-75
2022/05/09 11:24:11;;;;;;;6.45;2.35;;;;;;;;;;4841397;29;20077;-75
2022/05/09 11:26:46;;;;;;;8.18;3.28;;;;;;;;;;4841304;29;20042;-76
2022/05/09 11:29:21;;;;;;;6.82;2.00;;;;;;;;;;4841417;29;20038;-76
2022/05/09 11:32:06;;;;;;;6.20;1.70;;;;;;;;;;4826247;29;20038;-75
2022/05/09 11:34:38;;;;;;;9.73;1.95;;;;;;;;;;4846819;29;20045;-75
2022/05/09 11:37:24;;;;;;;6.82;2.47;;;;;;;;;;4916014;29;20028;-76
2022/05/09 11:40:03;;;;;;;7.95;2.58;;;;;;;;;;4915858;29;20044;-76
2022/05/09 11:45:57;;;;;;;6.95;2.70;;;;;;;;;;4914914;29;20167;-76
2022/05/09 11:48:35;;;;;;;7.05;2.35;;;;;;;;;;4859118;29;20055;-76
2022/05/09 11:51:02;;;;;;;6.20;2.40;;;;;;;;;;4875553;29;20051;-76
2022/05/09 11:53:30;;;;;;;7.43;2.25;;;;;;;;;;4896391;29;20076;-76
2022/05/09 11:55:57;;;;;;;9.27;1.90;;;;;;;;;;4896384;29;20020;-76
2022/05/09 11:58:26;;;;;;;8.30;2.38;;;;;;;;;;4896305;29;20108;-76
2022/05/09 12:00:53;;;;;;;13.30;2.40;;;;;;;;;;4896020;29;20028;-76
2022/05/09 12:03:39;;;;;;;9.35;2.05;;;;;;;;;;4895863;29;20148;-75
2022/05/09 12:06:06;;;;;;;14.07;2.63;;;;;;;;;;4895685;29;20044;-76
2022/05/09 12:08:43;;;;;;;9.25;1.90;;;;;;;;;;4895842;29;20024;-75
2022/05/09 12:11:15;;;;;;;11.90;2.42;;;;;;;;;;4895782;29;20500;-77
2022/05/09 12:13:41;;;;;;;8.10;2.03;;;;;;;;;;4895583;29;20699;-76
2022/05/09 12:16:08;;;;;;;6.15;1.85;;;;;;;;;;4895775;29;20032;-75
2022/05/09 12:18:52;;;;;;;6.47;1.85;;;;;;;;;;4895920;29;20429;-76
2022/05/09 12:21:20;;;;;;;9.50;2.00;;;;;;;;;;4895813;29;20036;-77
2022/05/09 12:23:47;;;;;;;10.48;2.50;;;;;;;;;;4893726;29;20497;-76
2022/05/09 12:26:33;;;;;;;5.63;2.30;;;;;;;;;;4953675;28;20468;-77
2022/05/09 12:29:23;;;;;;;5.88;1.92;;;;;;;;;;4955191;28;20387;-78
2022/05/09 12:31:51;;;;;;;9.07;2.50;;;;;;;;;;4955127;28;20371;-76
2022/05/09 12:34:37;;;;;;;16.88;2.97;;;;;;;;;;4954755;28;20104;-77
2022/05/09 12:37:03;;;;;;;8.95;2.50;;;;;;;;;;4954693;29;20023;-77
2022/05/09 12:39:34;;;;;;;7.20;2.30;;;;;;;;;;4964713;28;20025;-78
2022/05/09 12:42:01;;;;;;;15.65;3.33;;;;;;;;;;4974285;28;20350;-78
2022/05/09 12:44:33;;;;;;;17.75;2.60;;;;;;;;;;4974009;28;20069;-77
2022/05/09 12:47:05;;;;;;;10.75;3.20;;;;;;;;;;4974204;28;20034;-77
2022/05/09 12:49:40;;;;;;;13.75;2.90;;;;;;;;;;4974590;28;20023;-77
2022/05/09 12:52:07;;;;;;;8.88;3.15;;;;;;;;;;4974171;28;20031;-77
2022/05/09 12:54:35;;;;;;;12.40;2.80;;;;;;;;;;4973385;28;20184;-75
2022/05/09 12:57:03;;;;;;;11.07;3.53;;;;;;;;;;4972976;28;20022;-78
2022/05/09 12:59:43;;;;;;;6.43;3.25;;;;;;;;;;4973324;28;20075;-77
2022/05/09 13:02:10;;;;;;;9.02;2.90;;;;;;;;;;4973816;28;20031;-77
2022/05/09 13:04:37;;;;;;;13.30;3.28;;;;;;;;;;4973774;28;20129;-76
2022/05/09 13:07:07;;;;;;;9.82;3.20;;;;;;;;;;4973736;28;20026;-78
2022/05/09 13:09:35;;;;;;;8.52;3.50;;;;;;;;;;4972157;28;20027;-76
2022/05/09 13:12:04;;;;;;;12.23;3.45;;;;;;;;;;4973580;28;20049;-76
2022/05/09 13:14:37;;;;;;;8.23;3.83;;;;;;;;;;4973384;28;20026;-75
2022/05/09 13:17:04;;;;;;;8.23;3.47;;;;;;;;;;4971381;28;20054;-76
2022/05/09 13:19:31;;;;;;;12.60;4.25;;;;;;;;;;4973397;28;20046;-76
2022/05/09 13:21:57;;;;;;;8.63;3.60;;;;;;;;;;4973414;28;20042;-74
2022/05/09 13:24:30;;;;;;;10.50;3.55;;;;;;;;;;4973150;28;20481;-74
2022/05/09 13:26:58;;;;;;;13.07;3.75;;;;;;;;;;4973042;28;20042;-76
2022/05/09 13:29:27;;;;;;;9.40;3.50;;;;;;;;;;4973097;28;20045;-75
2022/05/09 13:31:55;;;;;;;8.05;3.60;;;;;;;;;;4972841;28;20113;-77
2022/05/09 13:34:23;;;;;;;8.95;3.42;;;;;;;;;;4973039;28;20034;-75
2022/05/09 13:36:49;;;;;;;7.90;3.00;;;;;;;;;;4973610;28;20039;-77
2022/05/09 13:39:41;;;;;;;11.27;4.13;;;;;;;;;;4973488;28;20365;-80
2022/05/09 13:42:07;;;;;;;;;;;;;;;;;;4970558;28;20047;-78
2022/05/09 13:44:33;;;;;;;15.07;3.67;;;;;;;;;;4971640;28;19929;-76
2022/05/09 13:47:00;;;;;;;8.60;4.20;;;;;;;;;;4971629;28;20031;-77
2022/05/09 13:49:29;;;;;;;9.85;4.55;;;;;;;;;;4973051;28;20035;-76
2022/05/09 13:51:55;;;;;;;8.98;3.92;;;;;;;;;;4972724;28;20038;-76
2022/05/09 13:54:23;;;;;;;11.95;4.68;;;;;;;;;;4972619;28;20492;-77
2022/05/09 13:56:49;;;;;;;9.02;4.63;;;;;;;;;;4970824;28;20540;-77
2022/05/09 13:59:16;;;;;;;12.63;4.30;;;;;;;;;;4972537;28;20500;-76
2022/05/09 14:01:44;;;;;;;11.32;3.63;;;;;;;;;;4972402;28;20510;-79
2022/05/09 14:04:11;;;;;;;8.77;3.60;;;;;;;;;;4972528;28;20026;-79
2022/05/09 14:06:37;;;;;;;9.10;3.53;;;;;;;;;;4972627;28;20093;-77
2022/05/09 14:09:06;;;;;;;8.55;3.78;;;;;;;;;;4972388;28;20105;-77
2022/05/09 14:11:33;;;;;;;10.73;3.95;;;;;;;;;;4972377;28;20030;-77
2022/05/09 14:14:00;;;;;;;9.18;4.40;;;;;;;;;;4972369;28;20082;-75
2022/05/09 14:16:34;;;;;;;14.48;4.57;;;;;;;;;;4966574;28;20157;-76
2022/05/09 14:19:09;;;;;;;9.38;3.72;;;;;;;;;;4968565;28;20055;-75
2022/05/09 14:21:43;;;;;;;12.13;5.22;;;;;;;;;;4960342;28;20438;-75
2022/05/09 14:24:11;;;;;;;14.63;5.32;;;;;;;;;;4966923;28;20478;-76
2022/05/09 14:29:43;;;;;;;12.80;5.07;;;;;;;;;;4969662;28;20090;-75
2022/05/09 14:32:35;;;;;;;17.77;4.63;;;;;;;;;;4961825;28;20137;-75
2022/05/09 14:35:02;;;;;;;8.80;4.50;;;;;;;;;;4946569;28;20138;-76
2022/05/09 14:37:28;;;;;;;10.02;4.18;;;;;;;;;;4963882;28;20062;-76
2022/05/09 14:40:06;;;;;;;10.23;4.38;;;;;;;;;;4969042;28;20027;-76
2022/05/09 14:42:33;;;;;;;13.25;4.35;;;;;;;;;;4965236;28;20042;-77
2022/05/09 14:45:08;;;;;;;9.52;4.47;;;;;;;;;;4963451;28;20548;-74
2022/05/09 14:47:54;;;;;;;24.50;4.22;;;;;;;;;;4967149;28;20027;-76
2022/05/09 14:50:23;;;;;;;8.75;3.53;;;;;;;;;;4928554;29;20043;-76
2022/05/09 14:52:50;;;;;;;11.20;5.22;;;;;;;;;;4929705;29;20179;-74
2022/05/09 14:58:03;;;;;;;8.52;4.13;;;;;;;;;;4923763;29;20446;-76
2022/05/09 15:00:32;;;;;;;12.95;5.05;;;;;;;;;;4921237;29;20051;-74